sensor_id;sensor_type;location;lat;lon;timestamp;P1;durP1;ratioP1;P2;durP2;ratioP2
14945;SDS011;7567;50.916;6.900;2022-07-30T00:01:36;8.65;;;4.30;;
14945;SDS011;7567;50.916;6.900;2022-07-30T00:04:02;5.22;;;4.07;;
14945;SDS011;7567;50.916;6.900;2022-07-30T00:06:29;5.88;;;3.90;;
14945;SDS011;7567;50.916;6.900;2022-07-30T00:08:55;6.07;;;4.28;;
14945;SDS011;7567;50.916;6.900;2022-07-30T00:11:21;7.95;;;4.00;;
14945;SDS011;7567;50.916;6.900;2022-07-30T00:13:47;6.28;;;4.07;;
14945;SDS011;7567;50.916;6.900;2022-07-30T00:16:13;5.93;;;3.90;;
14945;SDS011;7567;50.916;6.900;2022-07-30T00:18:39;5.47;;;4.03;;
14945;SDS011;7567;50.916;6.900;2022-07-30T00:21:05;6.68;;;3.90;;
14945;SDS011;7567;50.916;6.900;2022-07-30T00:23:32;6.32;;;4.15;;
14945;SDS011;7567;50.916;6.900;2022-07-30T00:25:59;8.07;;;3.85;;
14945;SDS011;7567;50.916;6.900;2022-07-30T00:28:25;4.95;;;3.97;;
14945;SDS011;7567;50.916;6.900;2022-07-30T00:30:51;5.28;;;4.28;;
14945;SDS011;7567;50.916;6.900;2022-07-30T00:33:17;3.97;;;3.58;;
14945;SDS011;7567;50.916;6.900;2022-07-30T00:35:43;4.00;;;3.60;;
14945;SDS011;7567;50.916;6.900;2022-07-30T00:38:10;5.97;;;3.85;;
14945;SDS011;7567;50.916;6.900;2022-07-30T00:40:36;5.82;;;3.60;;
14945;SDS011;7567;50.916;6.900;2022-07-30T00:43:02;6.13;;;4.10;;
14945;SDS011;7567;50.916;6.900;2022-07-30T00:45:28;7.05;;;3.92;;
14945;SDS011;7567;50.916;6.900;2022-07-30T00:47:54;5.95;;;4.03;;
14945;SDS011;7567;50.916;6.900;2022-07-30T00:50:20;5.45;;;4.03;;
14945;SDS011;7567;50.916;6.900;2022-07-30T00:52:46;8.00;;;4.32;;
14945;SDS011;7567;50.916;6.900;2022-07-30T00:55:13;6.15;;;4.25;;
14945;SDS011;7567;50.916;6.900;2022-07-30T00:57:39;7.63;;;4.15;;
14945;SDS011;7567;50.916;6.900;2022-07-30T01:00:08;8.18;;;4.30;;
14945;SDS011;7567;50.916;6.900;2022-07-30T01:02:36;7.75;;;4.75;;
14945;SDS011;7567;50.916;6.900;2022-07-30T01:05:02;5.93;;;4.45;;
14945;SDS011;7567;50.916;6.900;2022-07-30T01:07:28;5.32;;;4.72;;
14945;SDS011;7567;50.916;6.900;2022-07-30T01:09:54;7.55;;;5.18;;
14945;SDS011;7567;50.916;6.900;2022-07-30T01:12:22;8.35;;;5.10;;
14945;SDS011;7567;50.916;6.900;2022-07-30T01:14:50;6.28;;;4.22;;
14945;SDS011;7567;50.916;6.900;2022-07-30T01:17:17;7.03;;;4.63;;
14945;SDS011;7567;50.916;6.900;2022-07-30T01:19:43;7.20;;;5.10;;
14945;SDS011;7567;50.916;6.900;2022-07-30T01:25:00;6.53;;;4.55;;
14945;SDS011;7567;50.916;6.900;2022-07-30T01:27:29;5.30;;;4.80;;
14945;SDS011;7567;50.916;6.900;2022-07-30T01:29:58;5.30;;;4.70;;
14945;SDS011;7567;50.916;6.900;2022-07-30T01:32:29;8.57;;;4.82;;
14945;SDS011;7567;50.916;6.900;2022-07-30T01:34:57;7.03;;;5.07;;
14945;SDS011;7567;50.916;6.900;2022-07-30T01:37:25;5.75;;;5.22;;
14945;SDS011;7567;50.916;6.900;2022-07-30T01:39:52;6.10;;;5.38;;
14945;SDS011;7567;50.916;6.900;2022-07-30T01:42:19;9.52;;;5.63;;
14945;SDS011;7567;50.916;6.900;2022-07-30T01:44:47;5.90;;;4.85;;
14945;SDS011;7567;50.916;6.900;2022-07-30T01:47:14;8.52;;;5.57;;
14945;SDS011;7567;50.916;6.900;2022-07-30T01:49:45;6.93;;;4.97;;
14945;SDS011;7567;50.916;6.900;2022-07-30T01:52:15;5.55;;;4.47;;
14945;SDS011;7567;50.916;6.900;2022-07-30T01:54:44;6.85;;;4.55;;
14945;SDS011;7567;50.916;6.900;2022-07-30T01:57:15;5.60;;;4.93;;
14945;SDS011;7567;50.916;6.900;2022-07-30T01:59:44;7.53;;;5.00;;
14945;SDS011;7567;50.916;6.900;2022-07-30T02:02:13;9.02;;;5.18;;
14945;SDS011;7567;50.916;6.900;2022-07-30T02:04:39;7.60;;;5.00;;
14945;SDS011;7567;50.916;6.900;2022-07-30T02:07:09;5.35;;;4.80;;
14945;SDS011;7567;50.916;6.900;2022-07-30T02:10:04;9.20;;;4.63;;
14945;SDS011;7567;50.916;6.900;2022-07-30T02:12:35;9.05;;;4.75;;
14945;SDS011;7567;50.916;6.900;2022-07-30T02:17:43;8.10;;;5.50;;
14945;SDS011;7567;50.916;6.900;2022-07-30T02:20:20;10.10;;;6.07;;
14945;SDS011;7567;50.916;6.900;2022-07-30T02:22:50;7.82;;;5.93;;
14945;SDS011;7567;50.916;6.900;2022-07-30T02:25:22;11.63;;;6.20;;
14945;SDS011;7567;50.916;6.900;2022-07-30T02:27:55;11.27;;;6.45;;
14945;SDS011;7567;50.916;6.900;2022-07-30T02:30:24;8.10;;;6.38;;
14945;SDS011;7567;50.916;6.900;2022-07-30T02:32:52;7.57;;;5.38;;
14945;SDS011;7567;50.916;6.900;2022-07-30T02:35:22;7.15;;;5.45;;
14945;SDS011;7567;50.916;6.900;2022-07-30T02:37:51;6.07;;;5.57;;
14945;SDS011;7567;50.916;6.900;2022-07-30T02:40:19;6.95;;;5.80;;
14945;SDS011;7567;50.916;6.900;2022-07-30T02:42:49;9.85;;;5.35;;
14945;SDS011;7567;50.916;6.900;2022-07-30T02:45:17;8.98;;;6.03;;
14945;SDS011;7567;50.916;6.900;2022-07-30T02:47:45;7.32;;;5.82;;
14945;SDS011;7567;50.916;6.900;2022-07-30T02:50:14;7.10;;;6.20;;
14945;SDS011;7567;50.916;6.900;2022-07-30T02:52:43;6.93;;;6.18;;
14945;SDS011;7567;50.916;6.900;2022-07-30T02:55:11;7.65;;;5.70;;
14945;SDS011;7567;50.916;6.900;2022-07-30T02:57:38;8.25;;;6.13;;
14945;SDS011;7567;50.916;6.900;2022-07-30T03:00:07;7.55;;;6.22;;
14945;SDS011;7567;50.916;6.900;2022-07-30T03:02:34;10.80;;;6.78;;
14945;SDS011;7567;50.916;6.900;2022-07-30T03:05:04;9.85;;;6.18;;
14945;SDS011;7567;50.916;6.900;2022-07-30T03:07:33;6.95;;;6.05;;
14945;SDS011;7567;50.916;6.900;2022-07-30T03:10:00;7.20;;;6.50;;
14945;SDS011;7567;50.916;6.900;2022-07-30T03:12:28;7.18;;;6.05;;
14945;SDS011;7567;50.916;6.900;2022-07-30T03:14:55;7.95;;;6.63;;
14945;SDS011;7567;50.916;6.900;2022-07-30T03:17:22;12.05;;;6.70;;
14945;SDS011;7567;50.916;6.900;2022-07-30T03:19:51;11.82;;;7.88;;
14945;SDS011;7567;50.916;6.900;2022-07-30T03:22:19;9.23;;;7.80;;
14945;SDS011;7567;50.916;6.900;2022-07-30T03:24:49;8.02;;;7.22;;
14945;SDS011;7567;50.916;6.900;2022-07-30T03:27:16;8.07;;;7.28;;
14945;SDS011;7567;50.916;6.900;2022-07-30T03:29:43;10.93;;;8.40;;
14945;SDS011;7567;50.916;6.900;2022-07-30T03:32:11;11.40;;;8.48;;
14945;SDS011;7567;50.916;6.900;2022-07-30T03:34:37;12.50;;;8.32;;
14945;SDS011;7567;50.916;6.900;2022-07-30T03:37:04;8.68;;;7.60;;
14945;SDS011;7567;50.916;6.900;2022-07-30T03:39:33;13.18;;;8.73;;
14945;SDS011;7567;50.916;6.900;2022-07-30T03:42:00;11.45;;;9.05;;
14945;SDS011;7567;50.916;6.900;2022-07-30T03:44:28;13.55;;;8.75;;
14945;SDS011;7567;50.916;6.900;2022-07-30T03:46:54;15.23;;;8.32;;
14945;SDS011;7567;50.916;6.900;2022-07-30T03:49:21;14.38;;;8.18;;
14945;SDS011;7567;50.916;6.900;2022-07-30T03:51:48;10.98;;;8.75;;
14945;SDS011;7567;50.916;6.900;2022-07-30T03:54:16;10.65;;;8.48;;
14945;SDS011;7567;50.916;6.900;2022-07-30T03:56:43;9.98;;;8.48;;
14945;SDS011;7567;50.916;6.900;2022-07-30T03:59:10;8.63;;;7.63;;
14945;SDS011;7567;50.916;6.900;2022-07-30T04:01:38;8.23;;;7.43;;
14945;SDS011;7567;50.916;6.900;2022-07-30T04:04:05;8.15;;;7.22;;
14945;SDS011;7567;50.916;6.900;2022-07-30T04:06:35;9.05;;;8.20;;
14945;SDS011;7567;50.916;6.900;2022-07-30T04:09:08;9.13;;;8.00;;
14945;SDS011;7567;50.916;6.900;2022-07-30T04:11:34;8.13;;;7.32;;
14945;SDS011;7567;50.916;6.900;2022-07-30T04:14:01;10.80;;;8.27;;
14945;SDS011;7567;50.916;6.900;2022-07-30T04:17:11;9.98;;;7.70;;
14945;SDS011;7567;50.916;6.900;2022-07-30T04:19:21;11.32;;;7.35;;
14945;SDS011;7567;50.916;6.900;2022-07-30T04:22:00;12.63;;;7.43;;
14945;SDS011;7567;50.916;6.900;2022-07-30T04:24:27;7.70;;;6.90;;
14945;SDS011;7567;50.916;6.900;2022-07-30T04:26:55;10.93;;;7.93;;
14945;SDS011;7567;50.916;6.900;2022-07-30T04:29:23;11.30;;;8.25;;
14945;SDS011;7567;50.916;6.900;2022-07-30T04:31:49;12.90;;;8.68;;
14945;SDS011;7567;50.916;6.900;2022-07-30T04:34:17;8.82;;;7.95;;
14945;SDS011;7567;50.916;6.900;2022-07-30T04:36:43;9.27;;;7.65;;
14945;SDS011;7567;50.916;6.900;2022-07-30T04:39:09;10.50;;;8.25;;
14945;SDS011;7567;50.916;6.900;2022-07-30T04:41:36;10.88;;;9.77;;
14945;SDS011;7567;50.916;6.900;2022-07-30T04:44:06;14.07;;;9.50;;
14945;SDS011;7567;50.916;6.900;2022-07-30T04:46:32;8.57;;;7.80;;
14945;SDS011;7567;50.916;6.900;2022-07-30T04:48:58;9.95;;;8.35;;
14945;SDS011;7567;50.916;6.900;2022-07-30T04:51:28;10.85;;;8.20;;
14945;SDS011;7567;50.916;6.900;2022-07-30T04:53:57;11.10;;;8.00;;
14945;SDS011;7567;50.916;6.900;2022-07-30T04:56:26;11.90;;;8.70;;
14945;SDS011;7567;50.916;6.900;2022-07-30T04:58:55;9.75;;;7.68;;
14945;SDS011;7567;50.916;6.900;2022-07-30T05:01:22;11.00;;;8.55;;
14945;SDS011;7567;50.916;6.900;2022-07-30T05:03:51;10.80;;;8.75;;
14945;SDS011;7567;50.916;6.900;2022-07-30T05:06:20;9.02;;;7.97;;
14945;SDS011;7567;50.916;6.900;2022-07-30T05:08:48;9.93;;;8.73;;
14945;SDS011;7567;50.916;6.900;2022-07-30T05:11:14;12.25;;;9.38;;
14945;SDS011;7567;50.916;6.900;2022-07-30T05:13:41;11.13;;;9.63;;
14945;SDS011;7567;50.916;6.900;2022-07-30T05:16:07;14.48;;;9.90;;
14945;SDS011;7567;50.916;6.900;2022-07-30T05:18:34;15.32;;;9.52;;
14945;SDS011;7567;50.916;6.900;2022-07-30T05:21:00;10.55;;;9.32;;
14945;SDS011;7567;50.916;6.900;2022-07-30T05:23:26;14.48;;;10.55;;
14945;SDS011;7567;50.916;6.900;2022-07-30T05:25:52;12.02;;;10.27;;
14945;SDS011;7567;50.916;6.900;2022-07-30T05:28:18;14.27;;;9.95;;
14945;SDS011;7567;50.916;6.900;2022-07-30T05:30:44;15.77;;;10.85;;
14945;SDS011;7567;50.916;6.900;2022-07-30T05:33:10;12.45;;;10.48;;
14945;SDS011;7567;50.916;6.900;2022-07-30T05:35:36;17.77;;;12.63;;
14945;SDS011;7567;50.916;6.900;2022-07-30T05:38:02;20.50;;;13.63;;
14945;SDS011;7567;50.916;6.900;2022-07-30T05:40:28;19.98;;;13.73;;
14945;SDS011;7567;50.916;6.900;2022-07-30T05:42:54;18.67;;;13.50;;
14945;SDS011;7567;50.916;6.900;2022-07-30T05:45:20;19.00;;;15.63;;
14945;SDS011;7567;50.916;6.900;2022-07-30T05:47:46;19.00;;;14.82;;
14945;SDS011;7567;50.916;6.900;2022-07-30T05:50:12;22.13;;;15.77;;
14945;SDS011;7567;50.916;6.900;2022-07-30T05:52:38;18.80;;;14.93;;
14945;SDS011;7567;50.916;6.900;2022-07-30T05:55:04;19.17;;;14.05;;
14945;SDS011;7567;50.916;6.900;2022-07-30T05:57:33;19.50;;;14.55;;
14945;SDS011;7567;50.916;6.900;2022-07-30T06:00:01;18.33;;;13.88;;
14945;SDS011;7567;50.916;6.900;2022-07-30T06:02:30;17.65;;;15.43;;
14945;SDS011;7567;50.916;6.900;2022-07-30T06:04:56;23.15;;;15.52;;
14945;SDS011;7567;50.916;6.900;2022-07-30T06:07:22;19.40;;;15.50;;
14945;SDS011;7567;50.916;6.900;2022-07-30T06:09:48;19.17;;;16.27;;
14945;SDS011;7567;50.916;6.900;2022-07-30T06:12:14;20.73;;;16.90;;
14945;SDS011;7567;50.916;6.900;2022-07-30T06:14:40;25.13;;;16.83;;
14945;SDS011;7567;50.916;6.900;2022-07-30T06:17:06;21.13;;;15.85;;
14945;SDS011;7567;50.916;6.900;2022-07-30T06:19:31;18.17;;;14.13;;
14945;SDS011;7567;50.916;6.900;2022-07-30T06:21:57;23.88;;;16.77;;
14945;SDS011;7567;50.916;6.900;2022-07-30T06:24:23;19.45;;;15.38;;
14945;SDS011;7567;50.916;6.900;2022-07-30T06:26:49;17.13;;;14.63;;
14945;SDS011;7567;50.916;6.900;2022-07-30T06:29:15;21.02;;;14.70;;
14945;SDS011;7567;50.916;6.900;2022-07-30T06:31:41;22.42;;;14.40;;
14945;SDS011;7567;50.916;6.900;2022-07-30T06:34:07;25.02;;;14.10;;
14945;SDS011;7567;50.916;6.900;2022-07-30T06:36:33;23.67;;;15.60;;
14945;SDS011;7567;50.916;6.900;2022-07-30T06:38:59;21.02;;;15.23;;
14945;SDS011;7567;50.916;6.900;2022-07-30T06:41:26;19.95;;;14.07;;
14945;SDS011;7567;50.916;6.900;2022-07-30T06:43:51;21.70;;;14.50;;
14945;SDS011;7567;50.916;6.900;2022-07-30T06:46:17;24.48;;;14.48;;
14945;SDS011;7567;50.916;6.900;2022-07-30T06:48:43;22.80;;;15.43;;
14945;SDS011;7567;50.916;6.900;2022-07-30T06:51:09;25.30;;;13.73;;
14945;SDS011;7567;50.916;6.900;2022-07-30T06:53:35;21.10;;;14.07;;
14945;SDS011;7567;50.916;6.900;2022-07-30T06:56:01;21.83;;;14.95;;
14945;SDS011;7567;50.916;6.900;2022-07-30T06:58:27;22.27;;;15.95;;
14945;SDS011;7567;50.916;6.900;2022-07-30T07:00:53;20.63;;;15.77;;
14945;SDS011;7567;50.916;6.900;2022-07-30T07:03:19;21.67;;;13.88;;
14945;SDS011;7567;50.916;6.900;2022-07-30T07:05:45;22.55;;;15.60;;
14945;SDS011;7567;50.916;6.900;2022-07-30T07:08:11;21.40;;;14.60;;
14945;SDS011;7567;50.916;6.900;2022-07-30T07:10:37;22.80;;;14.57;;
14945;SDS011;7567;50.916;6.900;2022-07-30T07:13:03;20.33;;;14.50;;
14945;SDS011;7567;50.916;6.900;2022-07-30T07:15:29;19.23;;;14.07;;
14945;SDS011;7567;50.916;6.900;2022-07-30T07:17:55;20.65;;;13.85;;
14945;SDS011;7567;50.916;6.900;2022-07-30T07:20:21;22.85;;;14.68;;
14945;SDS011;7567;50.916;6.900;2022-07-30T07:22:47;18.60;;;14.00;;
14945;SDS011;7567;50.916;6.900;2022-07-30T07:25:13;21.60;;;14.70;;
14945;SDS011;7567;50.916;6.900;2022-07-30T07:27:39;19.63;;;13.70;;
14945;SDS011;7567;50.916;6.900;2022-07-30T07:30:06;18.65;;;13.63;;
14945;SDS011;7567;50.916;6.900;2022-07-30T07:32:33;19.33;;;13.85;;
14945;SDS011;7567;50.916;6.900;2022-07-30T07:34:59;20.00;;;14.90;;
14945;SDS011;7567;50.916;6.900;2022-07-30T07:37:25;20.17;;;15.25;;
14945;SDS011;7567;50.916;6.900;2022-07-30T07:39:52;18.55;;;14.38;;
14945;SDS011;7567;50.916;6.900;2022-07-30T07:42:17;17.70;;;13.13;;
14945;SDS011;7567;50.916;6.900;2022-07-30T07:44:43;20.92;;;13.27;;
14945;SDS011;7567;50.916;6.900;2022-07-30T07:47:09;18.30;;;13.82;;
14945;SDS011;7567;50.916;6.900;2022-07-30T07:49:35;21.13;;;13.95;;
14945;SDS011;7567;50.916;6.900;2022-07-30T07:52:01;19.98;;;13.60;;
14945;SDS011;7567;50.916;6.900;2022-07-30T07:54:27;15.95;;;12.80;;
14945;SDS011;7567;50.916;6.900;2022-07-30T07:56:53;16.42;;;12.15;;
14945;SDS011;7567;50.916;6.900;2022-07-30T07:59:22;17.23;;;11.43;;
14945;SDS011;7567;50.916;6.900;2022-07-30T08:01:49;18.10;;;12.05;;
14945;SDS011;7567;50.916;6.900;2022-07-30T08:04:15;19.00;;;10.90;;
14945;SDS011;7567;50.916;6.900;2022-07-30T08:06:41;16.17;;;11.52;;
14945;SDS011;7567;50.916;6.900;2022-07-30T08:09:08;15.40;;;11.05;;
14945;SDS011;7567;50.916;6.900;2022-07-30T08:11:34;13.43;;;11.05;;
14945;SDS011;7567;50.916;6.900;2022-07-30T08:14:00;16.90;;;11.63;;
14945;SDS011;7567;50.916;6.900;2022-07-30T08:16:26;12.38;;;9.63;;
14945;SDS011;7567;50.916;6.900;2022-07-30T08:18:52;20.30;;;10.20;;
14945;SDS011;7567;50.916;6.900;2022-07-30T08:21:18;16.48;;;9.73;;
14945;SDS011;7567;50.916;6.900;2022-07-30T08:23:44;11.98;;;9.43;;
14945;SDS011;7567;50.916;6.900;2022-07-30T08:26:10;13.80;;;8.25;;
14945;SDS011;7567;50.916;6.900;2022-07-30T08:28:36;11.57;;;8.38;;
14945;SDS011;7567;50.916;6.900;2022-07-30T08:31:02;13.23;;;8.68;;
14945;SDS011;7567;50.916;6.900;2022-07-30T08:33:28;11.63;;;8.35;;
14945;SDS011;7567;50.916;6.900;2022-07-30T08:35:55;15.38;;;8.60;;
14945;SDS011;7567;50.916;6.900;2022-07-30T08:38:21;14.70;;;10.07;;
14945;SDS011;7567;50.916;6.900;2022-07-30T08:40:47;11.02;;;8.85;;
14945;SDS011;7567;50.916;6.900;2022-07-30T08:43:14;16.38;;;9.70;;
14945;SDS011;7567;50.916;6.900;2022-07-30T08:45:40;15.88;;;9.68;;
14945;SDS011;7567;50.916;6.900;2022-07-30T08:48:09;13.95;;;9.05;;
14945;SDS011;7567;50.916;6.900;2022-07-30T08:50:36;14.45;;;8.70;;
14945;SDS011;7567;50.916;6.900;2022-07-30T08:53:03;13.25;;;9.15;;
14945;SDS011;7567;50.916;6.900;2022-07-30T08:55:30;12.27;;;8.95;;
14945;SDS011;7567;50.916;6.900;2022-07-30T08:57:56;16.83;;;8.50;;
14945;SDS011;7567;50.916;6.900;2022-07-30T09:00:22;14.30;;;8.93;;
14945;SDS011;7567;50.916;6.900;2022-07-30T09:02:48;15.13;;;9.18;;
14945;SDS011;7567;50.916;6.900;2022-07-30T09:05:14;15.13;;;10.50;;
14945;SDS011;7567;50.916;6.900;2022-07-30T09:07:40;14.48;;;10.48;;
14945;SDS011;7567;50.916;6.900;2022-07-30T09:10:08;14.20;;;10.10;;
14945;SDS011;7567;50.916;6.900;2022-07-30T09:12:41;13.15;;;8.63;;
14945;SDS011;7567;50.916;6.900;2022-07-30T09:15:10;13.07;;;9.75;;
14945;SDS011;7567;50.916;6.900;2022-07-30T09:17:46;15.27;;;11.90;;
14945;SDS011;7567;50.916;6.900;2022-07-30T09:20:12;12.27;;;9.48;;
14945;SDS011;7567;50.916;6.900;2022-07-30T09:22:43;12.82;;;9.68;;
14945;SDS011;7567;50.916;6.900;2022-07-30T09:25:11;15.25;;;11.20;;
14945;SDS011;7567;50.916;6.900;2022-07-30T09:27:47;17.00;;;10.80;;
14945;SDS011;7567;50.916;6.900;2022-07-30T09:30:15;15.85;;;10.82;;
14945;SDS011;7567;50.916;6.900;2022-07-30T09:32:48;13.60;;;10.05;;
14945;SDS011;7567;50.916;6.900;2022-07-30T09:35:17;12.38;;;11.10;;
14945;SDS011;7567;50.916;6.900;2022-07-30T09:37:44;13.68;;;10.18;;
14945;SDS011;7567;50.916;6.900;2022-07-30T09:40:15;13.73;;;9.98;;
14945;SDS011;7567;50.916;6.900;2022-07-30T09:42:43;12.40;;;8.73;;
14945;SDS011;7567;50.916;6.900;2022-07-30T09:45:12;12.75;;;10.30;;
14945;SDS011;7567;50.916;6.900;2022-07-30T09:47:41;16.38;;;10.82;;
14945;SDS011;7567;50.916;6.900;2022-07-30T09:50:09;14.10;;;9.68;;
14945;SDS011;7567;50.916;6.900;2022-07-30T09:52:38;11.40;;;7.63;;
14945;SDS011;7567;50.916;6.900;2022-07-30T09:55:06;15.07;;;9.30;;
14945;SDS011;7567;50.916;6.900;2022-07-30T09:57:33;16.02;;;7.72;;
14945;SDS011;7567;50.916;6.900;2022-07-30T10:00:19;10.48;;;7.18;;
14945;SDS011;7567;50.916;6.900;2022-07-30T10:02:47;15.63;;;8.52;;
14945;SDS011;7567;50.916;6.900;2022-07-30T10:05:15;14.10;;;8.60;;
14945;SDS011;7567;50.916;6.900;2022-07-30T10:08:01;9.88;;;6.88;;
14945;SDS011;7567;50.916;6.900;2022-07-30T10:10:28;10.35;;;6.22;;
14945;SDS011;7567;50.916;6.900;2022-07-30T10:12:57;10.75;;;6.22;;
14945;SDS011;7567;50.916;6.900;2022-07-30T10:15:32;9.70;;;6.93;;
14945;SDS011;7567;50.916;6.900;2022-07-30T10:18:00;9.20;;;6.00;;
14945;SDS011;7567;50.916;6.900;2022-07-30T10:20:27;11.40;;;6.65;;
14945;SDS011;7567;50.916;6.900;2022-07-30T10:22:54;7.32;;;4.88;;
14945;SDS011;7567;50.916;6.900;2022-07-30T10:25:21;11.70;;;4.57;;
14945;SDS011;7567;50.916;6.900;2022-07-30T10:27:49;11.20;;;5.47;;
14945;SDS011;7567;50.916;6.900;2022-07-30T10:30:16;9.13;;;5.80;;
14945;SDS011;7567;50.916;6.900;2022-07-30T10:32:43;9.23;;;5.70;;
14945;SDS011;7567;50.916;6.900;2022-07-30T10:35:11;7.60;;;4.97;;
14945;SDS011;7567;50.916;6.900;2022-07-30T10:37:39;13.55;;;4.95;;
14945;SDS011;7567;50.916;6.900;2022-07-30T10:40:11;10.73;;;4.50;;
14945;SDS011;7567;50.916;6.900;2022-07-30T10:48:18;8.48;;;5.80;;
14945;SDS011;7567;50.916;6.900;2022-07-30T10:50:49;10.55;;;5.50;;
14945;SDS011;7567;50.916;6.900;2022-07-30T10:53:38;8.82;;;4.97;;
14945;SDS011;7567;50.916;6.900;2022-07-30T10:56:16;9.27;;;4.50;;
14945;SDS011;7567;50.916;6.900;2022-07-30T11:02:05;8.45;;;4.57;;
14945;SDS011;7567;50.916;6.900;2022-07-30T11:04:24;8.95;;;4.97;;
14945;SDS011;7567;50.916;6.900;2022-07-30T11:09:52;8.32;;;4.40;;
14945;SDS011;7567;50.916;6.900;2022-07-30T11:15:09;7.30;;;4.20;;
14945;SDS011;7567;50.916;6.900;2022-07-30T11:20:35;5.55;;;4.10;;
14945;SDS011;7567;50.916;6.900;2022-07-30T11:23:08;6.35;;;3.85;;
14945;SDS011;7567;50.916;6.900;2022-07-30T11:28:03;6.90;;;3.90;;
14945;SDS011;7567;50.916;6.900;2022-07-30T11:30:31;7.05;;;3.63;;
14945;SDS011;7567;50.916;6.900;2022-07-30T11:35:33;7.38;;;3.75;;
14945;SDS011;7567;50.916;6.900;2022-07-30T11:38:12;7.72;;;3.45;;
14945;SDS011;7567;50.916;6.900;2022-07-30T11:43:31;7.47;;;3.20;;
14945;SDS011;7567;50.916;6.900;2022-07-30T11:48:59;5.15;;;3.38;;
14945;SDS011;7567;50.916;6.900;2022-07-30T11:51:42;9.55;;;3.55;;
14945;SDS011;7567;50.916;6.900;2022-07-30T11:54:10;6.78;;;3.42;;
14945;SDS011;7567;50.916;6.900;2022-07-30T11:59:19;5.70;;;2.88;;
14945;SDS011;7567;50.916;6.900;2022-07-30T12:01:51;8.85;;;3.35;;
14945;SDS011;7567;50.916;6.900;2022-07-30T12:04:21;7.63;;;3.10;;
14945;SDS011;7567;50.916;6.900;2022-07-30T12:06:48;5.38;;;3.20;;
14945;SDS011;7567;50.916;6.900;2022-07-30T12:09:21;5.72;;;3.05;;
14945;SDS011;7567;50.916;6.900;2022-07-30T12:11:52;6.85;;;3.30;;
14945;SDS011;7567;50.916;6.900;2022-07-30T12:14:20;7.90;;;3.33;;
14945;SDS011;7567;50.916;6.900;2022-07-30T12:16:49;4.60;;;2.63;;
14945;SDS011;7567;50.916;6.900;2022-07-30T12:19:17;6.22;;;2.90;;
14945;SDS011;7567;50.916;6.900;2022-07-30T12:21:43;4.43;;;3.10;;
14945;SDS011;7567;50.916;6.900;2022-07-30T12:24:09;7.10;;;2.70;;
14945;SDS011;7567;50.916;6.900;2022-07-30T12:26:35;4.55;;;2.55;;
14945;SDS011;7567;50.916;6.900;2022-07-30T12:29:06;6.97;;;2.70;;
14945;SDS011;7567;50.916;6.900;2022-07-30T12:31:38;4.60;;;2.75;;
14945;SDS011;7567;50.916;6.900;2022-07-30T12:34:25;7.55;;;3.15;;
14945;SDS011;7567;50.916;6.900;2022-07-30T12:36:52;5.82;;;3.17;;
14945;SDS011;7567;50.916;6.900;2022-07-30T12:39:23;7.55;;;3.17;;
14945;SDS011;7567;50.916;6.900;2022-07-30T12:41:51;4.85;;;2.97;;
14945;SDS011;7567;50.916;6.900;2022-07-30T12:47:21;5.13;;;2.47;;
14945;SDS011;7567;50.916;6.900;2022-07-30T12:49:52;6.20;;;2.13;;
14945;SDS011;7567;50.916;6.900;2022-07-30T12:52:29;5.22;;;2.40;;
14945;SDS011;7567;50.916;6.900;2022-07-30T12:54:57;6.22;;;2.22;;
14945;SDS011;7567;50.916;6.900;2022-07-30T12:57:25;6.70;;;2.58;;
14945;SDS011;7567;50.916;6.900;2022-07-30T13:00:01;3.28;;;2.25;;
14945;SDS011;7567;50.916;6.900;2022-07-30T13:02:32;7.40;;;2.65;;
14945;SDS011;7567;50.916;6.900;2022-07-30T13:04:59;3.05;;;1.92;;
14945;SDS011;7567;50.916;6.900;2022-07-30T13:07:25;5.03;;;2.20;;
14945;SDS011;7567;50.916;6.900;2022-07-30T13:10:05;3.42;;;2.30;;
14945;SDS011;7567;50.916;6.900;2022-07-30T13:12:33;7.30;;;2.38;;
14945;SDS011;7567;50.916;6.900;2022-07-30T13:14:59;2.45;;;2.00;;
14945;SDS011;7567;50.916;6.900;2022-07-30T13:17:25;4.55;;;2.53;;
14945;SDS011;7567;50.916;6.900;2022-07-30T13:19:51;6.38;;;2.35;;
14945;SDS011;7567;50.916;6.900;2022-07-30T13:22:17;3.13;;;2.00;;
14945;SDS011;7567;50.916;6.900;2022-07-30T13:24:43;4.40;;;2.17;;
14945;SDS011;7567;50.916;6.900;2022-07-30T13:27:09;4.45;;;2.38;;
14945;SDS011;7567;50.916;6.900;2022-07-30T13:29:35;3.92;;;2.03;;
14945;SDS011;7567;50.916;6.900;2022-07-30T13:32:01;2.35;;;1.92;;
14945;SDS011;7567;50.916;6.900;2022-07-30T13:34:27;4.38;;;2.20;;
14945;SDS011;7567;50.916;6.900;2022-07-30T13:36:53;6.03;;;2.58;;
14945;SDS011;7567;50.916;6.900;2022-07-30T13:39:19;6.35;;;2.15;;
14945;SDS011;7567;50.916;6.900;2022-07-30T13:41:45;8.80;;;3.00;;
14945;SDS011;7567;50.916;6.900;2022-07-30T13:44:11;4.40;;;2.58;;
14945;SDS011;7567;50.916;6.900;2022-07-30T13:46:37;4.43;;;2.72;;
14945;SDS011;7567;50.916;6.900;2022-07-30T13:49:04;2.80;;;1.92;;
14945;SDS011;7567;50.916;6.900;2022-07-30T13:51:30;5.40;;;2.22;;
14945;SDS011;7567;50.916;6.900;2022-07-30T13:53:56;3.00;;;2.22;;
14945;SDS011;7567;50.916;6.900;2022-07-30T13:56:22;5.13;;;2.20;;
14945;SDS011;7567;50.916;6.900;2022-07-30T13:58:48;3.97;;;1.75;;
14945;SDS011;7567;50.916;6.900;2022-07-30T14:01:14;4.35;;;3.05;;
14945;SDS011;7567;50.916;6.900;2022-07-30T14:03:40;4.22;;;2.22;;
14945;SDS011;7567;50.916;6.900;2022-07-30T14:06:08;5.38;;;4.80;;
14945;SDS011;7567;50.916;6.900;2022-07-30T14:08:34;2.85;;;1.63;;
14945;SDS011;7567;50.916;6.900;2022-07-30T14:11:00;2.05;;;1.40;;
14945;SDS011;7567;50.916;6.900;2022-07-30T14:13:28;4.88;;;1.83;;
14945;SDS011;7567;50.916;6.900;2022-07-30T14:15:54;3.78;;;1.65;;
14945;SDS011;7567;50.916;6.900;2022-07-30T14:18:20;2.55;;;1.30;;
14945;SDS011;7567;50.916;6.900;2022-07-30T14:20:46;3.10;;;2.60;;
14945;SDS011;7567;50.916;6.900;2022-07-30T14:23:13;3.28;;;1.58;;
14945;SDS011;7567;50.916;6.900;2022-07-30T14:25:40;4.95;;;2.38;;
14945;SDS011;7567;50.916;6.900;2022-07-30T14:28:08;3.58;;;1.90;;
14945;SDS011;7567;50.916;6.900;2022-07-30T14:30:34;2.85;;;1.60;;
14945;SDS011;7567;50.916;6.900;2022-07-30T14:33:01;6.18;;;1.70;;
14945;SDS011;7567;50.916;6.900;2022-07-30T14:35:27;3.85;;;2.15;;
14945;SDS011;7567;50.916;6.900;2022-07-30T14:37:53;4.22;;;1.70;;
14945;SDS011;7567;50.916;6.900;2022-07-30T14:40:19;4.63;;;1.50;;
14945;SDS011;7567;50.916;6.900;2022-07-30T14:42:45;3.15;;;1.80;;
14945;SDS011;7567;50.916;6.900;2022-07-30T14:45:12;2.17;;;1.52;;
14945;SDS011;7567;50.916;6.900;2022-07-30T14:47:38;4.93;;;2.20;;
14945;SDS011;7567;50.916;6.900;2022-07-30T14:50:05;3.25;;;1.80;;
14945;SDS011;7567;50.916;6.900;2022-07-30T14:52:34;4.25;;;1.98;;
14945;SDS011;7567;50.916;6.900;2022-07-30T14:55:06;4.60;;;2.10;;
14945;SDS011;7567;50.916;6.900;2022-07-30T14:57:33;2.97;;;2.08;;
14945;SDS011;7567;50.916;6.900;2022-07-30T14:59:59;6.40;;;1.60;;
14945;SDS011;7567;50.916;6.900;2022-07-30T15:02:26;4.28;;;1.85;;
14945;SDS011;7567;50.916;6.900;2022-07-30T15:04:52;5.43;;;1.73;;
14945;SDS011;7567;50.916;6.900;2022-07-30T15:07:18;3.58;;;1.80;;
14945;SDS011;7567;50.916;6.900;2022-07-30T15:09:43;4.70;;;1.75;;
14945;SDS011;7567;50.916;6.900;2022-07-30T15:12:09;5.25;;;1.70;;
14945;SDS011;7567;50.916;6.900;2022-07-30T15:14:37;4.00;;;1.80;;
14945;SDS011;7567;50.916;6.900;2022-07-30T15:17:04;2.92;;;1.60;;
14945;SDS011;7567;50.916;6.900;2022-07-30T15:19:30;4.07;;;2.00;;
14945;SDS011;7567;50.916;6.900;2022-07-30T15:21:57;4.35;;;1.40;;
14945;SDS011;7567;50.916;6.900;2022-07-30T15:24:25;3.45;;;1.38;;
14945;SDS011;7567;50.916;6.900;2022-07-30T15:26:52;1.98;;;1.33;;
14945;SDS011;7567;50.916;6.900;2022-07-30T15:29:20;1.70;;;1.30;;
14945;SDS011;7567;50.916;6.900;2022-07-30T15:31:48;2.40;;;1.65;;
14945;SDS011;7567;50.916;6.900;2022-07-30T15:34:15;2.35;;;1.40;;
14945;SDS011;7567;50.916;6.900;2022-07-30T15:36:41;1.73;;;1.35;;